Time;durP1;ratioP1;P1;durP2;ratioP2;P2;SDS_P1;SDS_P2;PMS_P1;PMS_P2;Temp;Humidity;BMP_temperature;BMP_pressure;BME280_temperature;BME280_humidity;BME280_pressure;Samples;Min_cycle;Max_cycle;Signal;HPM_P1;HPM_P2
2024/04/12 00:01:13;;;;;;;12.52;7.68;;;14.80;92.20;;;;;;5487057;26;19999;-36
2024/04/12 00:03:41;;;;;;;11.00;8.20;;;14.80;92.10;;;;;;5487229;26;20012;-33
2024/04/12 00:06:15;;;;;;;10.80;8.32;;;14.80;92.20;;;;;;5486730;26;19998;-31
2024/04/12 00:08:47;;;;;;;;;;;14.80;92.10;;;;;;5487602;26;20010;-32
2024/04/12 00:11:18;;;;;;;7.72;6.90;;;14.80;92.10;;;;;;5487108;26;19924;-34
2024/04/12 00:13:45;;;;;;;11.73;8.50;;;14.80;92.10;;;;;;5487270;26;20012;-33
2024/04/12 00:16:11;;;;;;;9.07;7.90;;;14.80;92.10;;;;;;5486971;26;20002;-32
2024/04/12 00:18:37;;;;;;;10.35;8.38;;;14.80;92.10;;;;;;5487247;26;20002;-33
2024/04/12 00:21:05;;;;;;;9.60;7.88;;;14.80;92.10;;;;;;5486881;26;20010;-34
2024/04/12 00:23:39;;;;;;;10.50;8.95;;;14.80;92.10;;;;;;5486600;26;19998;-34
2024/04/12 00:26:05;;;;;;;11.07;8.35;;;14.80;92.10;;;;;;5486879;26;19998;-34
2024/04/12 00:28:32;;;;;;;10.30;8.43;;;14.80;92.10;;;;;;5486515;26;19998;-33
2024/04/12 00:31:02;;;;;;;10.43;9.10;;;14.80;92.10;;;;;;5486739;26;19998;-34
2024/04/12 00:33:34;;;;;;;9.85;7.75;;;14.80;92.10;;;;;;5486977;26;20009;-35
2024/04/12 00:36:07;;;;;;;9.60;8.27;;;14.80;92.10;;;;;;5486821;26;20411;-33
2024/04/12 00:38:36;;;;;;;10.60;8.15;;;14.80;92.10;;;;;;5486435;26;19994;-35
2024/04/12 00:41:14;;;;;;;11.60;8.52;;;14.80;92.10;;;;;;5489840;26;20017;-33
2024/04/12 00:43:52;;;;;;;11.23;9.20;;;14.80;92.10;;;;;;5490274;26;20565;-32
2024/04/12 00:46:28;;;;;;;9.88;8.63;;;14.80;92.10;;;;;;5489925;26;20766;-33
2024/04/12 00:49:06;;;;;;;10.32;8.73;;;14.80;92.10;;;;;;5490005;26;19998;-34
2024/04/12 00:51:33;;;;;;;10.48;8.52;;;14.80;92.10;;;;;;5490195;26;20016;-34
2024/04/12 00:54:00;;;;;;;12.50;9.15;;;14.80;92.10;;;;;;5489981;26;20014;-33
2024/04/12 00:56:29;;;;;;;11.20;9.23;;;14.80;92.10;;;;;;5490342;26;20038;-33
2024/04/12 00:58:55;;;;;;;10.43;9.18;;;14.80;92.10;;;;;;5490771;26;20002;-34
2024/04/12 01:01:23;;;;;;;12.38;9.43;;;14.80;92.10;;;;;;5489796;26;20034;-34
2024/04/12 01:03:49;;;;;;;10.98;9.50;;;14.80;92.10;;;;;;5488373;26;20026;-34
2024/04/12 01:06:21;;;;;;;13.25;9.80;;;14.80;92.10;;;;;;5490044;26;20009;-34
2024/04/12 01:08:51;;;;;;;12.55;10.15;;;14.80;92.10;;;;;;5489891;26;20726;-34
2024/04/12 01:11:19;;;;;;;11.75;10.00;;;14.80;92.10;;;;;;5489838;26;19998;-34
2024/04/12 01:13:47;;;;;;;12.45;10.35;;;14.80;92.10;;;;;;5490143;26;20030;-34
2024/04/12 01:16:13;;;;;;;12.07;9.93;;;14.80;92.10;;;;;;5489734;26;19998;-35
2024/04/12 01:18:39;;;;;;;14.00;11.00;;;14.80;92.10;;;;;;5489945;26;20009;-34
2024/04/12 01:21:10;;;;;;;12.68;10.40;;;14.80;92.10;;;;;;5488318;26;19998;-34
2024/04/12 01:23:44;;;;;;;12.30;10.50;;;14.80;92.10;;;;;;5489997;26;20017;-32
2024/04/12 01:26:10;;;;;;;12.98;10.68;;;14.70;92.10;;;;;;5490026;26;20013;-33
2024/04/12 01:28:42;;;;;;;14.68;11.35;;;14.80;92.10;;;;;;5489980;26;19994;-34
2024/04/12 01:31:15;;;;;;;13.07;10.90;;;14.80;92.10;;;;;;5489807;26;20403;-33
2024/04/12 01:33:48;;;;;;;12.82;11.00;;;14.70;92.10;;;;;;5489943;26;19994;-34
2024/04/12 01:36:18;;;;;;;;;;;14.70;92.10;;;;;;5490343;26;19998;-33
2024/04/12 01:38:53;;;;;;;13.45;10.77;;;14.80;92.10;;;;;;5487490;26;19931;-33
2024/04/12 01:41:31;;;;;;;13.13;10.95;;;14.70;92.10;;;;;;5489613;26;20354;-33
2024/04/12 01:44:06;;;;;;;15.05;11.68;;;14.70;92.10;;;;;;5489967;26;20095;-33
2024/04/12 01:46:34;;;;;;;15.32;12.45;;;14.70;92.00;;;;;;5489359;26;20009;-33
2024/04/12 01:49:10;;;;;;;13.75;11.75;;;14.70;92.00;;;;;;5489310;26;20009;-33
2024/04/12 01:51:37;;;;;;;16.80;12.27;;;14.70;92.10;;;;;;5488387;26;20774;-34
2024/04/12 01:54:17;;;;;;;14.05;12.15;;;14.70;92.00;;;;;;5488983;26;20010;-33
2024/04/12 01:56:47;;;;;;;15.73;12.82;;;14.70;92.00;;;;;;5489363;26;20368;-34
2024/04/12 01:59:21;;;;;;;15.35;12.32;;;14.70;92.00;;;;;;5489016;26;20450;-35
2024/04/12 02:01:51;;;;;;;15.75;12.30;;;14.70;92.00;;;;;;5489377;26;20443;-34
2024/04/12 02:04:18;;;;;;;14.48;12.38;;;14.70;92.00;;;;;;5489162;26;20010;-35
2024/04/12 02:06:45;;;;;;;13.85;11.80;;;14.70;92.00;;;;;;5488712;26;20034;-35
2024/04/12 02:09:14;;;;;;;16.70;12.55;;;14.70;91.90;;;;;;5488787;26;20045;-34
2024/04/12 02:11:52;;;;;;;16.58;13.02;;;14.70;91.90;;;;;;5489058;26;20010;-35
2024/04/12 02:14:17;;;;;;;15.13;12.30;;;14.70;91.90;;;;;;5488810;26;19998;-34
2024/04/12 02:16:43;;;;;;;16.25;13.13;;;14.70;91.90;;;;;;5489055;26;20009;-35
2024/04/12 02:19:15;;;;;;;16.05;13.05;;;14.70;91.90;;;;;;5488864;26;20009;-33
2024/04/12 02:21:41;;;;;;;14.52;12.57;;;14.70;91.90;;;;;;5488844;26;20009;-32
2024/04/12 02:24:11;;;;;;;16.85;12.95;;;14.70;91.90;;;;;;5488757;26;20327;-34
2024/04/12 02:26:37;;;;;;;15.80;12.48;;;14.70;91.90;;;;;;5488444;26;20017;-33
2024/04/12 02:29:04;;;;;;;17.63;13.38;;;14.70;91.90;;;;;;5488375;26;20002;-34
2024/04/12 02:31:31;;;;;;;17.80;14.43;;;14.70;91.90;;;;;;5486629;26;20475;-32
2024/04/12 02:33:58;;;;;;;17.60;14.75;;;14.60;91.80;;;;;;5488467;26;20009;-33
2024/04/12 02:36:26;;;;;;;17.83;14.50;;;14.60;91.90;;;;;;5488519;26;20038;-33
2024/04/12 02:38:51;;;;;;;15.90;13.07;;;14.60;91.90;;;;;;5486725;26;19994;-34
2024/04/12 02:41:17;;;;;;;15.90;13.05;;;14.60;91.90;;;;;;5488514;26;20082;-33
2024/04/12 02:43:55;;;;;;;16.48;13.15;;;14.60;91.90;;;;;;5488616;26;20017;-39
2024/04/12 02:46:23;;;;;;;15.65;12.60;;;14.60;91.90;;;;;;5488136;26;20059;-34
2024/04/12 02:48:50;;;;;;;14.85;12.25;;;14.60;91.90;;;;;;5488242;26;19998;-33
2024/04/12 02:51:21;;;;;;;15.02;12.30;;;14.50;91.90;;;;;;5488443;26;19994;-35
2024/04/12 02:53:48;;;;;;;13.63;11.07;;;14.50;91.90;;;;;;5488217;26;19998;-33
2024/04/12 02:56:14;;;;;;;12.32;10.45;;;14.50;91.90;;;;;;5488329;26;20299;-34
2024/04/12 02:58:44;;;;;;;13.80;11.20;;;14.50;91.90;;;;;;5488358;26;20006;-33
2024/04/12 03:01:15;;;;;;;13.40;10.93;;;14.50;91.90;;;;;;5488147;26;20072;-34
2024/04/12 03:03:47;;;;;;;12.70;10.63;;;14.50;91.90;;;;;;5487773;26;20002;-33
2024/04/12 03:06:17;;;;;;;14.60;11.35;;;14.50;91.90;;;;;;5487680;26;20047;-33
2024/04/12 03:08:47;;;;;;;13.98;11.60;;;14.50;91.90;;;;;;5487701;26;20002;-33
2024/04/12 03:11:18;;;;;;;14.07;11.32;;;14.50;91.90;;;;;;5488233;26;19998;-34
2024/04/12 03:13:44;;;;;;;11.95;10.38;;;14.50;91.90;;;;;;5488067;26;19998;-34
2024/04/12 03:16:13;;;;;;;13.55;10.82;;;14.50;91.90;;;;;;5487921;26;20004;-32
2024/04/12 03:18:46;;;;;;;15.18;11.60;;;14.50;91.90;;;;;;5488279;26;19994;-33
2024/04/12 03:21:21;;;;;;;13.20;10.73;;;14.50;91.90;;;;;;5487701;26;19995;-34
2024/04/12 03:23:48;;;;;;;12.98;10.70;;;14.50;91.90;;;;;;5487868;26;20075;-34
2024/04/12 03:26:15;;;;;;;13.18;10.90;;;14.50;91.90;;;;;;5487623;26;20006;-33
2024/04/12 03:28:41;;;;;;;13.52;11.32;;;14.50;91.80;;;;;;5487867;26;19994;-34
2024/04/12 03:31:08;;;;;;;12.55;10.75;;;14.50;91.80;;;;;;5488513;26;19998;-33
2024/04/12 03:33:42;;;;;;;12.40;10.35;;;14.50;91.80;;;;;;5487951;26;20308;-35
2024/04/12 03:36:28;;;;;;;14.60;11.45;;;14.50;91.80;;;;;;5488093;26;20046;-33
2024/04/12 03:41:52;;;;;;;11.95;10.15;;;14.50;91.80;;;;;;5487757;26;20107;-33
2024/04/12 03:44:18;;;;;;;10.98;9.25;;;14.50;91.80;;;;;;5487609;26;20002;-33
2024/04/12 03:46:50;;;;;;;12.00;9.73;;;14.50;91.80;;;;;;5487519;26;20066;-34
2024/04/12 03:49:20;;;;;;;10.13;8.95;;;14.50;91.80;;;;;;5487643;26;20013;-35
2024/04/12 03:51:50;;;;;;;11.57;9.20;;;14.50;91.80;;;;;;5487885;26;20070;-34
2024/04/12 03:54:21;;;;;;;10.38;8.40;;;14.50;91.80;;;;;;5487542;26;20316;-35
2024/04/12 03:56:57;;;;;;;10.07;8.70;;;14.50;91.80;;;;;;5487980;26;20030;-35
2024/04/12 03:59:29;;;;;;;10.50;8.55;;;14.40;91.80;;;;;;5487754;26;20099;-35
2024/04/12 04:01:56;;;;;;;9.63;8.23;;;14.50;91.80;;;;;;5487796;26;20017;-34
2024/04/12 04:04:26;;;;;;;8.10;7.03;;;14.50;91.80;;;;;;5487219;26;19998;-36
2024/04/12 04:06:55;;;;;;;8.32;7.43;;;14.40;91.70;;;;;;5487100;26;20014;-37
2024/04/12 04:09:22;;;;;;;7.35;6.57;;;14.50;91.80;;;;;;5487122;26;20330;-33
2024/04/12 04:11:54;;;;;;;8.00;6.85;;;14.50;91.80;;;;;;5487084;26;20431;-34
2024/04/12 04:14:25;;;;;;;7.72;6.57;;;14.40;91.70;;;;;;5487365;26;20593;-35
2024/04/12 04:17:00;;;;;;;7.85;6.63;;;14.40;91.70;;;;;;5490556;26;20014;-35
2024/04/12 04:19:31;;;;;;;8.57;7.05;;;14.50;91.80;;;;;;5490488;26;20013;-35
2024/04/12 04:22:39;;;;;;;8.25;7.13;;;14.40;91.70;;;;;;5490468;26;20070;-35
2024/04/12 04:25:08;;;;;;;8.55;7.25;;;14.50;91.80;;;;;;5490411;26;19995;-34
2024/04/12 04:27:35;;;;;;;8.18;7.20;;;14.50;91.70;;;;;;5490357;26;20002;-34
2024/04/12 04:30:00;;;;;;;8.75;7.53;;;14.50;91.70;;;;;;5490513;26;20012;-33
2024/04/12 04:32:26;;;;;;;8.85;7.80;;;14.50;91.70;;;;;;5490227;26;20002;-35
2024/04/12 04:35:05;;;;;;;8.75;7.68;;;14.50;91.70;;;;;;5490272;26;20002;-35
2024/04/12 04:37:34;;;;;;;9.73;8.05;;;14.50;91.70;;;;;;5490080;26;19998;-35
2024/04/12 04:40:12;;;;;;;10.32;8.55;;;14.50;91.70;;;;;;5490328;26;20006;-33
2024/04/12 04:42:38;;;;;;;9.48;8.27;;;14.50;91.70;;;;;;5490190;26;20009;-33
2024/04/12 04:45:08;;;;;;;9.77;8.10;;;14.50;91.70;;;;;;5490060;26;19998;-34
2024/04/12 04:47:39;;;;;;;9.75;8.48;;;14.50;91.70;;;;;;5490091;26;20030;-34
2024/04/12 04:50:08;;;;;;;9.25;8.20;;;14.50;91.70;;;;;;5488493;26;19998;-35
2024/04/12 04:52:37;;;;;;;11.73;8.82;;;14.50;91.70;;;;;;5490012;26;20058;-35
2024/04/12 04:55:03;;;;;;;12.25;8.80;;;14.50;91.70;;;;;;5490255;26;20002;-34
2024/04/12 04:57:29;;;;;;;11.18;8.63;;;14.50;91.70;;;;;;5490008;26;20008;-34
2024/04/12 05:00:06;;;;;;;9.55;8.00;;;14.50;91.70;;;;;;5490003;26;19995;-35
2024/04/12 05:02:35;;;;;;;9.50;7.63;;;14.50;91.70;;;;;;5489662;26;20462;-33
2024/04/12 05:05:04;;;;;;;9.38;8.40;;;14.50;91.70;;;;;;5489813;26;20002;-34
2024/04/12 05:07:36;;;;;;;8.02;7.05;;;14.50;91.70;;;;;;5489121;26;20101;-34
2024/04/12 05:10:08;;;;;;;9.30;7.80;;;14.50;91.70;;;;;;5489559;26;20006;-35
2024/04/12 05:12:38;;;;;;;9.57;7.28;;;14.60;91.70;;;;;;5487866;26;20100;-34
2024/04/12 05:15:10;;;;;;;8.73;7.80;;;14.60;91.70;;;;;;5489694;26;20004;-35
2024/04/12 05:17:40;;;;;;;8.82;7.93;;;14.60;91.70;;;;;;5489635;26;20009;-35
2024/04/12 05:20:14;;;;;;;8.82;7.47;;;14.60;91.70;;;;;;5490129;26;20013;-35
2024/04/12 05:22:41;;;;;;;8.98;7.68;;;14.60;91.70;;;;;;5488075;26;20076;-33
2024/04/12 05:25:13;;;;;;;9.02;7.63;;;14.60;91.70;;;;;;5489800;26;19994;-34
2024/04/12 05:27:40;;;;;;;10.18;8.10;;;14.60;91.70;;;;;;5487957;26;20066;-34
2024/04/12 05:30:07;;;;;;;8.02;7.10;;;14.60;91.70;;;;;;5489560;26;20005;-34
2024/04/12 05:32:32;;;;;;;8.38;7.22;;;14.60;91.70;;;;;;5489653;26;19998;-34
2024/04/12 05:34:59;;;;;;;9.30;8.25;;;14.60;91.70;;;;;;5487813;26;20002;-34
2024/04/12 05:37:35;;;;;;;9.60;7.25;;;14.70;91.70;;;;;;5489141;26;20002;-35
2024/04/12 05:40:04;;;;;;;8.80;7.90;;;14.70;91.60;;;;;;5489651;26;20009;-35
2024/04/12 05:42:30;;;;;;;10.30;7.95;;;14.80;91.60;;;;;;5489438;26;20407;-34
2024/04/12 05:44:59;;;;;;;10.65;8.00;;;14.80;91.60;;;;;;5489391;26;20013;-35
2024/04/12 05:47:29;;;;;;;9.90;7.72;;;14.80;91.60;;;;;;5487657;26;19998;-35
2024/04/12 05:49:55;;;;;;;9.43;7.82;;;14.80;91.60;;;;;;5489441;26;20043;-35
2024/04/12 05:52:22;;;;;;;11.68;8.32;;;14.80;91.60;;;;;;5489221;26;20010;-34
2024/04/12 05:54:50;;;;;;;10.35;7.55;;;14.90;91.50;;;;;;5489457;26;20012;-36
2024/04/12 05:57:18;;;;;;;11.40;7.90;;;14.90;91.50;;;;;;5488894;26;20396;-35
2024/04/12 05:59:44;;;;;;;10.27;7.28;;;15.00;91.50;;;;;;5488910;26;19998;-35
2024/04/12 06:02:10;;;;;;;7.65;6.72;;;15.10;91.40;;;;;;5489067;26;20002;-34
2024/04/12 06:04:36;;;;;;;8.85;7.45;;;15.10;91.40;;;;;;5489443;26;20407;-35
2024/04/12 06:07:11;;;;;;;11.23;7.57;;;15.20;91.60;;;;;;5489106;26;20002;-34
2024/04/12 06:09:40;;;;;;;7.50;6.63;;;15.20;91.30;;;;;;5488995;26;20013;-35
2024/04/12 06:12:06;;;;;;;9.82;7.10;;;15.20;91.30;;;;;;5489014;26;19994;-34
2024/04/12 06:14:38;;;;;;;10.40;7.40;;;15.20;91.20;;;;;;5488776;26;20335;-35
2024/04/12 06:17:08;;;;;;;8.15;6.65;;;15.20;91.20;;;;;;5488875;26;20002;-35
2024/04/12 06:19:37;;;;;;;7.90;7.05;;;15.20;91.20;;;;;;5488612;26;20012;-35
2024/04/12 06:22:03;;;;;;;8.88;6.90;;;15.30;91.20;;;;;;5488439;26;20002;-33
2024/04/12 06:24:29;;;;;;;9.27;6.75;;;15.30;91.20;;;;;;5488293;26;19998;-34
2024/04/12 06:26:58;;;;;;;10.52;7.03;;;15.30;91.20;;;;;;5488095;26;20098;-34
2024/04/12 06:29:26;;;;;;;9.85;7.57;;;15.30;91.20;;;;;;5487760;26;20002;-34
2024/04/12 06:31:56;;;;;;;8.30;6.68;;;15.40;91.10;;;;;;5488349;26;19998;-34
2024/04/12 06:34:22;;;;;;;9.90;6.80;;;15.40;91.10;;;;;;5488027;26;20006;-34
2024/04/12 06:36:55;;;;;;;9.38;7.50;;;15.40;91.10;;;;;;5488227;26;20006;-35
2024/04/12 06:39:27;;;;;;;;;;;15.40;91.10;;;;;;5488134;26;20013;-33
2024/04/12 06:41:53;;;;;;;11.57;8.55;;;15.40;91.10;;;;;;5488333;26;20372;-34
2024/04/12 06:44:19;;;;;;;12.35;7.63;;;15.40;91.10;;;;;;5488283;26;19998;-38
2024/04/12 06:46:49;;;;;;;10.07;7.95;;;15.40;91.10;;;;;;5488384;26;20074;-35
2024/04/12 06:49:15;;;;;;;11.77;8.32;;;15.40;91.10;;;;;;5487788;26;20070;-35
2024/04/12 06:52:09;;;;;;;11.50;8.00;;;15.50;91.10;;;;;;5486296;26;20014;-34
2024/04/12 06:54:36;;;;;;;11.77;8.02;;;15.40;91.00;;;;;;5487946;26;19998;-33
2024/04/12 06:57:06;;;;;;;11.85;8.32;;;15.50;91.00;;;;;;5487979;26;20121;-36
2024/04/12 06:59:35;;;;;;;11.02;8.48;;;15.60;91.00;;;;;;5485942;26;20032;-35
2024/04/12 07:02:07;;;;;;;10.73;8.85;;;15.60;91.00;;;;;;5487817;26;19998;-35
2024/04/12 07:04:33;;;;;;;10.85;8.25;;;15.60;90.90;;;;;;5488032;26;20001;-34
2024/04/12 07:07:05;;;;;;;12.25;8.85;;;15.70;90.90;;;;;;5487451;26;20002;-35
2024/04/12 07:09:32;;;;;;;11.80;8.77;;;15.80;90.90;;;;;;5487285;26;19998;-35
2024/04/12 07:12:05;;;;;;;12.30;9.48;;;15.80;90.90;;;;;;5487885;26;20009;-35
2024/04/12 07:14:37;;;;;;;11.70;9.45;;;15.80;90.80;;;;;;5487994;26;20070;-34
2024/04/12 07:17:19;;;;;;;12.48;9.02;;;15.80;90.80;;;;;;5487960;26;20010;-35
2024/04/12 07:19:49;;;;;;;12.13;9.35;;;15.80;90.80;;;;;;5487611;26;20017;-34
2024/04/12 07:22:18;;;;;;;12.95;9.10;;;15.80;90.80;;;;;;5487539;26;20002;-35
2024/04/12 07:24:47;;;;;;;13.45;9.48;;;15.80;90.80;;;;;;5487819;26;20009;-35
2024/04/12 07:27:16;;;;;;;12.20;8.57;;;15.80;90.80;;;;;;5485909;26;19994;-35
2024/04/12 07:29:44;;;;;;;12.77;8.82;;;15.80;90.80;;;;;;5487902;26;20002;-35
2024/04/12 07:32:13;;;;;;;13.40;8.23;;;15.80;90.80;;;;;;5487566;26;20006;-34
2024/04/12 07:34:48;;;;;;;11.50;8.43;;;15.90;90.80;;;;;;5487751;26;20445;-34
2024/04/12 07:37:27;;;;;;;11.18;8.18;;;15.90;90.80;;;;;;5487090;26;19998;-34
2024/04/12 07:40:15;;;;;;;10.85;8.10;;;16.00;90.70;;;;;;5487730;26;20006;-34
2024/04/12 07:42:48;;;;;;;12.23;8.20;;;16.00;90.70;;;;;;5487574;26;20431;-34
2024/04/12 07:45:24;;;;;;;11.35;7.88;;;16.00;90.70;;;;;;5487150;26;20009;-34
2024/04/12 07:47:54;;;;;;;12.35;8.88;;;16.00;90.60;;;;;;5487516;26;20061;-34
2024/04/12 07:50:28;;;;;;;12.45;8.82;;;16.00;90.60;;;;;;5485909;26;20450;-34
2024/04/12 07:52:58;;;;;;;9.98;8.25;;;16.10;90.60;;;;;;5487480;26;20002;-35
2024/04/12 07:55:26;;;;;;;12.45;8.30;;;16.10;90.60;;;;;;5487389;26;20012;-37
2024/04/12 07:57:55;;;;;;;10.93;7.88;;;16.10;90.60;;;;;;5487134;26;20347;-33
2024/04/12 08:00:36;;;;;;;16.02;8.25;;;16.20;90.60;;;;;;5487088;26;20047;-35
2024/04/12 08:03:07;;;;;;;11.82;8.15;;;16.20;90.50;;;;;;5487173;26;19999;-35
2024/04/12 08:06:36;;;;;;;11.75;8.18;;;16.30;90.50;;;;;;5487156;26;20075;-33
2024/04/12 08:08:27;;;;;;;10.98;7.75;;;16.30;90.40;;;;;;5473468;26;19994;-34
2024/04/12 08:10:56;;;;;;;14.02;8.38;;;16.30;90.40;;;;;;5487070;26;20002;-34
2024/04/12 08:13:37;;;;;;;13.32;8.20;;;16.40;90.40;;;;;;5486948;26;20353;-35
2024/04/12 08:16:08;;;;;;;12.07;8.30;;;16.40;90.30;;;;;;5487084;26;20090;-35
2024/04/12 08:18:35;;;;;;;13.85;7.97;;;16.50;90.20;;;;;;5486572;26;20049;-34
2024/04/12 08:21:07;;;;;;;11.40;8.00;;;16.50;90.20;;;;;;5486977;26;20406;-34
2024/04/12 08:23:42;;;;;;;11.02;7.47;;;16.60;90.10;;;;;;5487069;26;20017;-34
2024/04/12 08:26:11;;;;;;;10.82;7.82;;;16.60;90.00;;;;;;5486712;26;20017;-38
2024/04/12 08:28:40;;;;;;;11.80;7.15;;;16.60;89.90;;;;;;5486663;26;20476;-36
2024/04/12 08:31:10;;;;;;;10.73;7.88;;;16.60;89.90;;;;;;5487067;26;20214;-35
2024/04/12 08:33:40;;;;;;;11.70;7.07;;;16.70;89.90;;;;;;5486797;26;20030;-36
2024/04/12 08:36:16;;;;;;;12.48;7.18;;;16.70;89.90;;;;;;5484961;26;20335;-35
2024/04/12 08:38:57;;;;;;;11.88;7.70;;;16.80;89.90;;;;;;5486383;26;20330;-34
2024/04/12 08:41:24;;;;;;;9.68;7.28;;;16.80;89.80;;;;;;5486847;26;20002;-35
2024/04/12 08:43:59;;;;;;;11.50;7.80;;;16.80;89.60;;;;;;5486237;26;20009;-35
2024/04/12 08:46:33;;;;;;;11.95;7.18;;;16.90;89.50;;;;;;5486628;26;19999;-35
2024/04/12 08:49:00;;;;;;;10.52;7.80;;;17.00;89.40;;;;;;5486543;26;20419;-36
2024/04/12 08:51:32;;;;;;;11.50;7.55;;;17.00;89.20;;;;;;5486655;26;20051;-35
2024/04/12 08:54:03;;;;;;;11.30;7.30;;;17.10;89.00;;;;;;5486546;26;20006;-36
2024/04/12 08:56:29;;;;;;;14.30;8.15;;;17.10;88.80;;;;;;5486457;26;20006;-35
2024/04/12 08:59:05;;;;;;;10.50;7.32;;;17.20;88.80;;;;;;5485990;26;20527;-36
2024/04/12 09:01:32;;;;;;;13.13;7.35;;;17.20;88.40;;;;;;5487983;26;20002;-35
2024/04/12 09:04:13;;;;;;;11.48;6.78;;;17.20;88.20;;;;;;5489801;26;20002;-36
2024/04/12 09:06:39;;;;;;;11.90;7.20;;;17.30;88.00;;;;;;5489352;26;20034;-36
2024/04/12 09:09:04;;;;;;;10.13;7.10;;;17.30;87.80;;;;;;5489209;26;20032;-36
2024/04/12 09:11:31;;;;;;;11.95;6.93;;;17.40;87.70;;;;;;5489675;26;19994;-36
2024/04/12 09:14:08;;;;;;;11.82;7.07;;;17.40;87.60;;;;;;5489584;26;20005;-36
2024/04/12 09:16:48;;;;;;;9.13;6.38;;;17.40;87.30;;;;;;5489600;26;19998;-35
2024/04/12 09:19:14;;;;;;;10.50;7.15;;;17.40;88.00;;;;;;5489352;26;20009;-35
2024/04/12 09:21:58;;;;;;;11.15;7.68;;;17.50;87.20;;;;;;5489579;26;20078;-34
2024/04/12 09:24:31;;;;;;;10.57;6.40;;;17.40;86.80;;;;;;5489402;26;20013;-35
2024/04/12 09:26:58;;;;;;;13.13;7.53;;;17.50;86.90;;;;;;5489427;26;19998;-36
2024/04/12 09:29:27;;;;;;;11.23;6.90;;;17.60;86.80;;;;;;5489089;26;20002;-35
2024/04/12 09:34:46;;;;;;;10.00;7.18;;;17.80;86.30;;;;;;5451427;26;19995;-35
2024/04/12 09:40:04;;;;;;;9.65;6.35;;;17.90;85.30;;;;;;5489176;26;20016;-35
2024/04/12 09:43:21;;;;;;;11.07;6.97;;;17.90;85.30;;;;;;5489249;26;20006;-35
2024/04/12 09:45:45;;;;;;;12.75;6.45;;;18.00;85.10;;;;;;5488699;26;20002;-35
2024/04/12 10:38:09;;;;;;;10.80;6.20;;;18.70;81.70;;;;;;5487921;26;20012;-36
2024/04/12 10:40:36;;;;;;;7.95;5.65;;;18.70;81.20;;;;;;5488593;26;19994;-37
2024/04/12 10:43:04;;;;;;;8.75;5.57;;;18.70;81.30;;;;;;5488366;26;20013;-34
2024/04/12 10:45:30;;;;;;;10.20;5.50;;;18.80;81.40;;;;;;5488218;26;19998;-36
2024/04/12 10:47:56;;;;;;;8.90;5.18;;;18.90;81.20;;;;;;5488220;26;20008;-36
2024/04/12 10:50:23;;;;;;;8.93;5.35;;;18.90;81.20;;;;;;5488559;26;20363;-35
2024/04/12 10:52:51;;;;;;;8.57;5.47;;;19.10;81.10;;;;;;5488652;26;20066;-37
2024/04/12 10:55:19;;;;;;;8.60;5.05;;;19.10;81.40;;;;;;5488463;26;20575;-36
2024/04/12 10:57:48;;;;;;;9.05;5.53;;;19.20;80.90;;;;;;5488095;26;20030;-36
2024/04/12 11:00:16;;;;;;;9.80;5.03;;;19.30;80.70;;;;;;5486441;26;20074;-36
2024/04/12 11:02:46;;;;;;;9.90;4.28;;;19.30;80.70;;;;;;5486407;26;20002;-36
2024/04/12 11:07:51;;;;;;;9.55;4.93;;;19.40;80.50;;;;;;5487948;26;20016;-35
2024/04/12 11:10:24;;;;;;;11.25;4.90;;;19.50;80.40;;;;;;5488024;26;20008;-36
2024/04/12 11:12:59;;;;;;;;;;;19.50;79.60;;;;;;5488834;26;20009;-37
2024/04/12 11:31:55;;;;;;;8.40;5.18;;;19.60;74.20;;;;;;5487621;26;20021;-36
2024/04/12 11:34:21;;;;;;;8.48;4.35;;;19.70;73.80;;;;;;5487404;26;20047;-35
2024/04/12 11:36:46;;;;;;;8.98;4.78;;;19.80;73.50;;;;;;5487140;26;20469;-36
2024/04/12 11:39:23;;;;;;;8.93;4.95;;;19.90;73.50;;;;;;5487417;26;20002;-35
2024/04/12 11:41:49;;;;;;;7.68;4.78;;;20.00;73.30;;;;;;5487478;26;20335;-37
2024/04/12 11:44:17;;;;;;;10.75;4.95;;;20.00;72.90;;;;;;5487387;26;20046;-36
2024/04/12 11:46:45;;;;;;;8.95;4.70;;;20.20;72.70;;;;;;5487613;26;20002;-34
2024/04/12 11:49:11;;;;;;;8.18;4.55;;;20.20;72.00;;;;;;5487242;26;20009;-35
2024/04/12 11:51:40;;;;;;;11.70;4.80;;;20.30;71.90;;;;;;5487401;26;20010;-36
2024/04/12 11:54:06;;;;;;;8.88;4.32;;;20.30;71.30;;;;;;5487232;26;20044;-36
2024/04/12 11:56:32;;;;;;;9.60;4.53;;;20.40;71.00;;;;;;5487296;26;20010;-37
2024/04/12 11:58:58;;;;;;;5.13;3.72;;;20.40;70.90;;;;;;5486802;26;20002;-35
2024/04/12 12:01:28;;;;;;;6.07;3.72;;;20.40;71.10;;;;;;5486977;26;20002;-34
2024/04/12 12:03:55;;;;;;;8.45;4.28;;;20.50;71.40;;;;;;5487220;26;19994;-35
2024/04/12 12:06:22;;;;;;;6.05;3.80;;;20.50;71.30;;;;;;5486689;26;19998;-36
2024/04/12 12:08:57;;;;;;;8.50;4.70;;;20.60;71.50;;;;;;5486369;26;20496;-36
2024/04/12 12:11:27;;;;;;;6.95;4.30;;;20.60;70.60;;;;;;5486945;26;20048;-35
2024/04/12 12:13:53;;;;;;;6.53;3.50;;;20.60;70.10;;;;;;5486804;26;20009;-35
2024/04/12 12:16:19;;;;;;;5.95;3.58;;;20.60;70.30;;;;;;5486605;26;19998;-36
2024/04/12 12:18:45;;;;;;;5.63;3.47;;;20.60;69.60;;;;;;5486515;26;20013;-35
2024/04/12 12:21:11;;;;;;;8.05;4.03;;;20.60;70.00;;;;;;5486613;26;20349;-35
2024/04/12 12:23:37;;;;;;;8.27;4.03;;;20.60;69.80;;;;;;5486562;26;20009;-35
2024/04/12 12:26:03;;;;;;;6.40;3.20;;;20.60;69.80;;;;;;5486514;26;20006;-35
2024/04/12 12:28:29;;;;;;;5.72;3.47;;;20.70;70.00;;;;;;5486459;26;20343;-35
2024/04/12 12:30:57;;;;;;;6.60;2.85;;;20.60;69.50;;;;;;5486563;26;20015;-36
2024/04/12 12:33:24;;;;;;;5.65;2.83;;;20.60;69.60;;;;;;5486386;26;19998;-34
2024/04/12 12:35:50;;;;;;;5.05;2.75;;;20.50;69.50;;;;;;5487763;26;20461;-38
2024/04/12 12:38:17;;;;;;;4.70;2.67;;;20.60;70.00;;;;;;5489403;26;20034;-35
2024/04/12 12:40:42;;;;;;;4.68;2.97;;;20.60;70.00;;;;;;5490343;26;20005;-36
2024/04/12 12:43:10;;;;;;;4.78;3.10;;;20.60;70.00;;;;;;5489863;26;20447;-35
2024/04/12 12:45:36;;;;;;;7.00;3.28;;;20.60;69.90;;;;;;5489774;26;20358;-34
2024/04/12 12:48:03;;;;;;;4.32;3.05;;;20.60;69.80;;;;;;5489936;26;19998;-34
2024/04/12 12:50:29;;;;;;;3.88;2.65;;;20.60;70.10;;;;;;5490131;26;20010;-36
2024/04/12 12:52:55;;;;;;;5.00;2.58;;;20.60;70.40;;;;;;5490096;26;20096;-35
2024/04/12 12:55:24;;;;;;;3.45;2.38;;;20.60;71.00;;;;;;5489871;26;20010;-33
2024/04/12 12:58:09;;;;;;;6.68;2.70;;;20.60;70.30;;;;;;5489875;26;20002;-36
2024/04/12 13:00:47;;;;;;;5.60;3.10;;;20.70;70.30;;;;;;5490671;26;19998;-35
2024/04/12 13:03:25;;;;;;;4.88;2.50;;;20.80;69.80;;;;;;5490300;26;20017;-36
2024/04/12 13:05:52;;;;;;;2.72;1.88;;;20.90;68.80;;;;;;5488423;26;20012;-45
2024/04/12 13:08:19;;;;;;;4.28;2.25;;;21.00;69.10;;;;;;5489640;26;20109;-35
2024/04/12 13:10:48;;;;;;;3.88;2.28;;;21.10;68.30;;;;;;5488160;26;20467;-35
2024/04/12 13:13:21;;;;;;;3.17;2.17;;;21.10;68.50;;;;;;5489319;26;19994;-36
2024/04/12 13:15:58;;;;;;;4.35;2.38;;;21.20;68.50;;;;;;5489537;26;20462;-36
2024/04/12 13:18:24;;;;;;;3.33;2.90;;;21.20;68.60;;;;;;5489550;26;20038;-35
2024/04/12 13:20:53;;;;;;;5.90;2.88;;;21.30;67.70;;;;;;5489555;26;19998;-35
2024/04/12 13:23:19;;;;;;;4.80;2.30;;;21.30;67.60;;;;;;5489489;26;19998;-37
2024/04/12 13:25:45;;;;;;;4.43;2.00;;;21.30;67.00;;;;;;5489396;26;19998;-35
2024/04/12 13:28:13;;;;;;;4.13;2.17;;;21.30;66.70;;;;;;5489004;26;20010;-36
2024/04/12 13:30:42;;;;;;;4.30;2.08;;;21.30;66.60;;;;;;5489530;26;20010;-36
2024/04/12 13:33:14;;;;;;;2.85;1.80;;;21.30;66.20;;;;;;5489219;26;20387;-36
2024/04/12 13:35:41;;;;;;;3.85;1.80;;;21.20;66.10;;;;;;5489290;26;20074;-36
2024/04/12 13:38:15;;;;;;;1.90;1.30;;;21.30;65.90;;;;;;5488587;26;20519;-35
2024/04/12 13:40:45;;;;;;;2.78;1.55;;;21.30;65.60;;;;;;5489371;26;20063;-35
2024/04/12 13:43:14;;;;;;;3.42;1.65;;;21.30;66.00;;;;;;5489109;26;20002;-36
2024/04/12 13:51:20;;;;;;;2.25;1.38;;;21.30;65.80;;;;;;5489243;26;20103;-36
2024/04/12 13:53:53;;;;;;;2.35;1.17;;;21.30;65.80;;;;;;5489088;26;20001;-36
2024/04/12 13:56:27;;;;;;;3.20;1.53;;;21.30;66.00;;;;;;5489414;26;20420;-35
2024/04/12 13:58:59;;;;;;;2.90;1.38;;;21.30;65.90;;;;;;5488949;26;20630;-36
2024/04/12 14:01:31;;;;;;;5.57;1.95;;;21.30;66.10;;;;;;5488950;26;20013;-36
2024/04/12 14:04:09;;;;;;;4.35;1.92;;;21.30;66.00;;;;;;5489119;26;20002;-36
2024/04/12 14:06:35;;;;;;;3.95;2.30;;;21.20;66.10;;;;;;5488902;26;20456;-35
2024/04/12 14:09:14;;;;;;;3.20;2.08;;;21.20;66.20;;;;;;5488706;26;20454;-35
2024/04/12 14:11:40;;;;;;;3.90;2.20;;;21.30;66.30;;;;;;5488738;26;20339;-36
2024/04/12 14:14:06;;;;;;;5.75;2.75;;;21.30;66.60;;;;;;5488312;26;20002;-34
2024/04/12 14:16:41;;;;;;;4.70;2.53;;;21.40;66.70;;;;;;5488733;26;20002;-35
2024/04/12 14:19:20;;;;;;;4.30;2.88;;;21.60;66.70;;;;;;5488248;26;20016;-35